sensor_id;sensor_type;location;lat;lon;timestamp;temperature;humidity
37890;DHT22;23730;49.120;12.214;2022-08-01T04:10:29;19.00;99.90
37890;DHT22;23730;49.120;12.214;2022-08-01T04:15:31;19.00;99.90
37890;DHT22;23730;49.120;12.214;2022-08-01T04:20:33;18.90;99.90
37890;DHT22;23730;49.120;12.214;2022-08-01T04:25:37;18.90;99.90
37890;DHT22;23730;49.120;12.214;2022-08-01T04:30:42;18.90;99.90
37890;DHT22;23730;49.120;12.214;2022-08-01T04:35:47;18.90;99.90
37890;DHT22;23730;49.120;12.214;2022-08-01T04:41:06;18.90;99.90
37890;DHT22;23730;49.120;12.214;2022-08-01T04:46:11;18.90;99.90
37890;DHT22;23730;49.120;12.214;2022-08-01T04:51:17;19.00;99.90
37890;DHT22;23730;49.120;12.214;2022-08-01T04:56:23;19.10;99.90
37890;DHT22;23730;49.120;12.214;2022-08-01T05:01:25;19.00;99.90
37890;DHT22;23730;49.120;12.214;2022-08-01T05:06:27;18.90;99.90
37890;DHT22;23730;49.120;12.214;2022-08-01T05:11:29;18.90;99.90
37890;DHT22;23730;49.120;12.214;2022-08-01T05:16:32;18.90;99.90
37890;DHT22;23730;49.120;12.214;2022-08-01T05:21:34;19.00;99.90
37890;DHT22;23730;49.120;12.214;2022-08-01T05:26:36;19.00;99.90
37890;DHT22;23730;49.120;12.214;2022-08-01T05:31:39;19.10;99.90
37890;DHT22;23730;49.120;12.214;2022-08-01T05:36:42;19.40;99.90
37890;DHT22;23730;49.120;12.214;2022-08-01T05:41:45;19.60;99.90
37890;DHT22;23730;49.120;12.214;2022-08-01T05:46:47;19.80;99.90
37890;DHT22;23730;49.120;12.214;2022-08-01T05:51:49;20.00;99.90
37890;DHT22;23730;49.120;12.214;2022-08-01T05:56:51;20.00;99.90
37890;DHT22;23730;49.120;12.214;2022-08-01T06:01:53;20.00;99.90
37890;DHT22;23730;49.120;12.214;2022-08-01T06:06:55;20.00;99.90
37890;DHT22;23730;49.120;12.214;2022-08-01T06:11:57;20.00;99.90
37890;DHT22;23730;49.120;12.214;2022-08-01T06:16:59;20.10;99.90
37890;DHT22;23730;49.120;12.214;2022-08-01T06:22:01;20.10;99.90
37890;DHT22;23730;49.120;12.214;2022-08-01T06:27:04;20.10;99.90
37890;DHT22;23730;49.120;12.214;2022-08-01T06:32:23;20.10;99.90
37890;DHT22;23730;49.120;12.214;2022-08-01T06:37:31;20.20;99.90
37890;DHT22;23730;49.120;12.214;2022-08-01T06:42:34;20.30;99.90
37890;DHT22;23730;49.120;12.214;2022-08-01T06:47:40;20.50;99.90
37890;DHT22;23730;49.120;12.214;2022-08-01T06:52:44;20.70;99.90
37890;DHT22;23730;49.120;12.214;2022-08-01T06:57:48;20.90;99.90
37890;DHT22;23730;49.120;12.214;2022-08-01T07:02:57;21.10;99.90
37890;DHT22;23730;49.120;12.214;2022-08-01T07:08:00;21.40;99.90
37890;DHT22;23730;49.120;12.214;2022-08-01T07:13:02;21.50;99.90
37890;DHT22;23730;49.120;12.214;2022-08-01T07:18:04;21.80;99.90
37890;DHT22;23730;49.120;12.214;2022-08-01T07:23:06;22.00;99.90
37890;DHT22;23730;49.120;12.214;2022-08-01T07:28:08;22.10;99.90
37890;DHT22;23730;49.120;12.214;2022-08-01T07:33:10;22.20;99.90
37890;DHT22;23730;49.120;12.214;2022-08-01T07:38:13;22.30;99.90
37890;DHT22;23730;49.120;12.214;2022-08-01T07:43:18;22.40;99.90
37890;DHT22;23730;49.120;12.214;2022-08-01T07:48:20;22.20;99.90
37890;DHT22;23730;49.120;12.214;2022-08-01T07:53:25;21.80;99.90
37890;DHT22;23730;49.120;12.214;2022-08-01T07:58:29;21.70;99.90
37890;DHT22;23730;49.120;12.214;2022-08-01T08:03:31;21.90;99.90
37890;DHT22;23730;49.120;12.214;2022-08-01T08:08:33;22.30;99.90
37890;DHT22;23730;49.120;12.214;2022-08-01T08:13:36;22.50;99.90
37890;DHT22;23730;49.120;12.214;2022-08-01T08:18:38;22.50;99.90
37890;DHT22;23730;49.120;12.214;2022-08-01T08:23:40;23.00;99.90
37890;DHT22;23730;49.120;12.214;2022-08-01T08:29:00;23.10;99.90
37890;DHT22;23730;49.120;12.214;2022-08-01T08:34:02;23.20;99.80
37890;DHT22;23730;49.120;12.214;2022-08-01T08:39:04;23.30;99.90
37890;DHT22;23730;49.120;12.214;2022-08-01T08:44:10;23.40;92.70
37890;DHT22;23730;49.120;12.214;2022-08-01T08:49:16;23.30;93.80
37890;DHT22;23730;49.120;12.214;2022-08-01T08:54:24;23.20;90.50
37890;DHT22;23730;49.120;12.214;2022-08-01T08:59:38;23.30;89.40
37890;DHT22;23730;49.120;12.214;2022-08-01T09:04:40;23.70;81.20
37890;DHT22;23730;49.120;12.214;2022-08-01T09:09:43;24.40;83.70
37890;DHT22;23730;49.120;12.214;2022-08-01T09:14:47;24.30;78.00
37890;DHT22;23730;49.120;12.214;2022-08-01T09:19:54;24.30;79.40
37890;DHT22;23730;49.120;12.214;2022-08-01T09:30:11;26.20;61.70
37890;DHT22;23730;49.120;12.214;2022-08-01T09:35:34;25.80;56.50
37890;DHT22;23730;49.120;12.214;2022-08-01T09:40:50;25.20;60.10
37890;DHT22;23730;49.120;12.214;2022-08-01T09:46:04;25.00;58.60
37890;DHT22;23730;49.120;12.214;2022-08-01T09:51:29;24.10;67.30
37890;DHT22;23730;49.120;12.214;2022-08-01T09:57:13;23.50;71.60
37890;DHT22;23730;49.120;12.214;2022-08-01T10:02:29;23.20;81.90
37890;DHT22;23730;49.120;12.214;2022-08-01T10:07:32;23.10;85.30
37890;DHT22;23730;49.120;12.214;2022-08-01T10:12:45;23.80;91.80
37890;DHT22;23730;49.120;12.214;2022-08-01T10:17:58;25.80;59.30
37890;DHT22;23730;49.120;12.214;2022-08-01T10:23:03;26.80;55.90
37890;DHT22;23730;49.120;12.214;2022-08-01T10:28:16;26.80;51.40
37890;DHT22;23730;49.120;12.214;2022-08-01T10:33:24;25.60;56.30
37890;DHT22;23730;49.120;12.214;2022-08-01T10:38:47;24.60;61.40
37890;DHT22;23730;49.120;12.214;2022-08-01T10:43:49;23.90;72.60
37890;DHT22;23730;49.120;12.214;2022-08-01T10:48:58;23.70;76.40
37890;DHT22;23730;49.120;12.214;2022-08-01T10:54:06;24.40;81.20
37890;DHT22;23730;49.120;12.214;2022-08-01T10:59:34;26.20;58.00
37890;DHT22;23730;49.120;12.214;2022-08-01T11:05:17;27.50;58.90
37890;DHT22;23730;49.120;12.214;2022-08-01T11:15:41;27.90;52.10
37890;DHT22;23730;49.120;12.214;2022-08-01T11:21:01;27.70;48.90
37890;DHT22;23730;49.120;12.214;2022-08-01T11:26:27;26.60;50.60
37890;DHT22;23730;49.120;12.214;2022-08-01T11:31:31;25.50;54.10
37890;DHT22;23730;49.120;12.214;2022-08-01T11:36:38;24.90;55.90
37890;DHT22;23730;49.120;12.214;2022-08-01T11:42:18;24.40;59.70
37890;DHT22;23730;49.120;12.214;2022-08-01T11:47:48;24.20;63.20
37890;DHT22;23730;49.120;12.214;2022-08-01T11:53:04;24.00;65.80
37890;DHT22;23730;49.120;12.214;2022-08-01T11:58:07;24.00;67.60
37890;DHT22;23730;49.120;12.214;2022-08-01T12:03:30;23.80;68.00
37890;DHT22;23730;49.120;12.214;2022-08-01T12:08:35;23.90;73.30
37890;DHT22;23730;49.120;12.214;2022-08-01T12:13:40;24.30;73.20
37890;DHT22;23730;49.120;12.214;2022-08-01T12:18:43;25.10;64.70
37890;DHT22;23730;49.120;12.214;2022-08-01T12:23:45;25.50;57.60
37890;DHT22;23730;49.120;12.214;2022-08-01T12:29:02;26.80;56.90
37890;DHT22;23730;49.120;12.214;2022-08-01T12:34:26;27.00;49.70
37890;DHT22;23730;49.120;12.214;2022-08-01T12:39:32;26.10;51.70
37890;DHT22;23730;49.120;12.214;2022-08-01T12:44:35;25.40;53.70
37890;DHT22;23730;49.120;12.214;2022-08-01T12:49:38;25.10;55.50
37890;DHT22;23730;49.120;12.214;2022-08-01T12:55:03;25.20;56.90
37890;DHT22;23730;49.120;12.214;2022-08-01T13:00:16;25.20;56.20
37890;DHT22;23730;49.120;12.214;2022-08-01T13:05:25;26.50;54.30
37890;DHT22;23730;49.120;12.214;2022-08-01T13:10:30;27.80;53.20
37890;DHT22;23730;49.120;12.214;2022-08-01T13:15:34;28.50;45.40
37890;DHT22;23730;49.120;12.214;2022-08-01T13:20:42;28.50;45.90
37890;DHT22;23730;49.120;12.214;2022-08-01T13:25:55;29.00;44.60
37890;DHT22;23730;49.120;12.214;2022-08-01T13:31:06;29.50;43.10
37890;DHT22;23730;49.120;12.214;2022-08-01T13:36:10;30.10;41.30
37890;DHT22;23730;49.120;12.214;2022-08-01T13:41:23;30.00;38.20
37890;DHT22;23730;49.120;12.214;2022-08-01T13:46:25;28.40;41.90
37890;DHT22;23730;49.120;12.214;2022-08-01T13:51:31;27.20;43.80
37890;DHT22;23730;49.120;12.214;2022-08-01T13:56:34;27.80;46.10
37890;DHT22;23730;49.120;12.214;2022-08-01T14:01:36;28.60;42.60
37890;DHT22;23730;49.120;12.214;2022-08-01T14:06:39;28.30;43.20
37890;DHT22;23730;49.120;12.214;2022-08-01T14:11:43;28.80;43.30
37890;DHT22;23730;49.120;12.214;2022-08-01T14:16:46;29.80;40.90
37890;DHT22;23730;49.120;12.214;2022-08-01T14:21:50;30.30;39.50
37890;DHT22;23730;49.120;12.214;2022-08-01T14:26:54;29.50;40.70
37890;DHT22;23730;49.120;12.214;2022-08-01T14:31:58;29.70;39.30
37890;DHT22;23730;49.120;12.214;2022-08-01T14:37:04;29.60;41.60
37890;DHT22;23730;49.120;12.214;2022-08-01T14:42:08;30.40;37.80
37890;DHT22;23730;49.120;12.214;2022-08-01T14:47:11;31.30;37.10
37890;DHT22;23730;49.120;12.214;2022-08-01T14:52:23;31.70;34.90
37890;DHT22;23730;49.120;12.214;2022-08-01T14:57:35;30.70;34.40
37890;DHT22;23730;49.120;12.214;2022-08-01T15:02:38;29.40;36.60
37890;DHT22;23730;49.120;12.214;2022-08-01T15:07:43;28.40;41.00
37890;DHT22;23730;49.120;12.214;2022-08-01T15:12:54;29.60;42.10
37890;DHT22;23730;49.120;12.214;2022-08-01T15:17:57;29.70;38.80
37890;DHT22;23730;49.120;12.214;2022-08-01T15:23:00;29.10;41.60
37890;DHT22;23730;49.120;12.214;2022-08-01T15:28:02;28.40;42.40
37890;DHT22;23730;49.120;12.214;2022-08-01T15:33:05;28.20;43.30
37890;DHT22;23730;49.120;12.214;2022-08-01T15:38:08;29.20;41.70
37890;DHT22;23730;49.120;12.214;2022-08-01T15:43:10;30.10;39.90
37890;DHT22;23730;49.120;12.214;2022-08-01T15:48:16;30.10;38.90
37890;DHT22;23730;49.120;12.214;2022-08-01T15:53:19;30.10;38.40
37890;DHT22;23730;49.120;12.214;2022-08-01T15:58:21;30.20;37.90
37890;DHT22;23730;49.120;12.214;2022-08-01T16:03:24;29.00;40.10
37890;DHT22;23730;49.120;12.214;2022-08-01T16:08:26;28.20;42.40
37890;DHT22;23730;49.120;12.214;2022-08-01T16:13:28;28.30;43.10
37890;DHT22;23730;49.120;12.214;2022-08-01T16:18:30;28.30;41.30
37890;DHT22;23730;49.120;12.214;2022-08-01T16:23:33;27.60;41.80
37890;DHT22;23730;49.120;12.214;2022-08-01T16:28:35;27.30;43.40
37890;DHT22;23730;49.120;12.214;2022-08-01T16:33:38;27.20;44.50
37890;DHT22;23730;49.120;12.214;2022-08-01T16:38:55;27.00;44.70
37890;DHT22;23730;49.120;12.214;2022-08-01T16:44:00;26.90;44.40
37890;DHT22;23730;49.120;12.214;2022-08-01T16:55:29;26.50;46.80
37890;DHT22;23730;49.120;12.214;2022-08-01T17:00:50;26.10;47.70
37890;DHT22;23730;49.120;12.214;2022-08-01T17:05:57;25.80;48.80
37890;DHT22;23730;49.120;12.214;2022-08-01T17:10:59;25.50;49.00
37890;DHT22;23730;49.120;12.214;2022-08-01T17:16:10;25.30;50.20
37890;DHT22;23730;49.120;12.214;2022-08-01T17:21:13;25.20;49.60
37890;DHT22;23730;49.120;12.214;2022-08-01T17:26:15;25.10;49.60
37890;DHT22;23730;49.120;12.214;2022-08-01T17:31:18;25.00;50.40
37890;DHT22;23730;49.120;12.214;2022-08-01T17:36:20;24.80;50.50
37890;DHT22;23730;49.120;12.214;2022-08-01T17:41:22;24.70;49.60
37890;DHT22;23730;49.120;12.214;2022-08-01T17:46:25;24.60;50.70
37890;DHT22;23730;49.120;12.214;2022-08-01T17:51:28;24.50;51.70
37890;DHT22;23730;49.120;12.214;2022-08-01T17:56:31;24.40;53.00
37890;DHT22;23730;49.120;12.214;2022-08-01T18:01:39;24.20;54.90
37890;DHT22;23730;49.120;12.214;2022-08-01T18:06:46;24.10;56.00
37890;DHT22;23730;49.120;12.214;2022-08-01T18:12:00;24.10;57.30
37890;DHT22;23730;49.120;12.214;2022-08-01T18:17:04;24.00;59.10
37890;DHT22;23730;49.120;12.214;2022-08-01T18:22:09;23.80;59.80
37890;DHT22;23730;49.120;12.214;2022-08-01T18:27:33;23.70;62.30
37890;DHT22;23730;49.120;12.214;2022-08-01T18:32:56;23.50;64.70
37890;DHT22;23730;49.120;12.214;2022-08-01T18:37:58;23.40;70.10
37890;DHT22;23730;49.120;12.214;2022-08-01T18:43:02;23.20;74.60
37890;DHT22;23730;49.120;12.214;2022-08-01T18:48:05;23.10;77.50
37890;DHT22;23730;49.120;12.214;2022-08-01T18:53:07;23.00;82.10
37890;DHT22;23730;49.120;12.214;2022-08-01T18:58:09;22.80;87.90
37890;DHT22;23730;49.120;12.214;2022-08-01T19:03:12;22.60;91.20
37890;DHT22;23730;49.120;12.214;2022-08-01T19:08:16;22.50;93.10
37890;DHT22;23730;49.120;12.214;2022-08-01T19:13:18;22.30;95.80
37890;DHT22;23730;49.120;12.214;2022-08-01T19:18:21;22.20;97.10
37890;DHT22;23730;49.120;12.214;2022-08-01T19:23:25;22.20;98.70
37890;DHT22;23730;49.120;12.214;2022-08-01T19:28:51;22.10;99.90
37890;DHT22;23730;49.120;12.214;2022-08-01T19:34:05;22.00;99.90
37890;DHT22;23730;49.120;12.214;2022-08-01T19:39:08;21.90;99.90
37890;DHT22;23730;49.120;12.214;2022-08-01T19:44:13;21.90;99.90
37890;DHT22;23730;49.120;12.214;2022-08-01T19:49:18;21.90;99.90
37890;DHT22;23730;49.120;12.214;2022-08-01T19:54:26;21.90;99.90
37890;DHT22;23730;49.120;12.214;2022-08-01T19:59:35;21.80;99.90
37890;DHT22;23730;49.120;12.214;2022-08-01T20:04:37;21.80;99.90
37890;DHT22;23730;49.120;12.214;2022-08-01T20:09:40;21.70;99.90
37890;DHT22;23730;49.120;12.214;2022-08-01T20:14:43;21.70;99.90
37890;DHT22;23730;49.120;12.214;2022-08-01T20:19:46;21.60;99.90
37890;DHT22;23730;49.120;12.214;2022-08-01T20:24:53;21.60;99.90
